Time;durP1;ratioP1;P1;durP2;ratioP2;P2;SDS_P1;SDS_P2;PMS_P1;PMS_P2;Temp;Humidity;BMP_temperature;BMP_pressure;BME280_temperature;BME280_humidity;BME280_pressure;Samples;Min_cycle;Max_cycle;Signal;HPM_P1;HPM_P2
2022/09/21 00:00:48;;;;;;;;;;;;;;;10.57;64.51;95369.25;5036319;28;1008;-62
2022/09/21 00:03:14;;;;;;;;;;;;;;;10.45;64.61;95374.88;5036101;28;957;-61
2022/09/21 00:05:40;;;;;;;;;;;;;;;10.44;64.31;95375.03;5035988;28;1017;-61
2022/09/21 00:08:06;;;;;;;;;;;;;;;10.38;64.58;95368.47;5035850;28;1910;-62
2022/09/21 00:10:33;;;;;;;;;;;;;;;10.40;64.54;95371.00;5035983;28;1040;-62
2022/09/21 00:13:01;;;;;;;;;;;;;;;10.40;64.50;95379.84;5035567;28;1024;-61
2022/09/21 00:15:29;;;;;;;;;;;;;;;10.31;65.17;95370.91;5036070;28;1004;-62
2022/09/21 00:17:56;;;;;;;;;;;;;;;10.32;65.12;95377.94;5035761;28;960;-61
2022/09/21 00:20:23;;;;;;;;;;;;;;;10.20;66.05;95364.94;5035934;28;1018;-62
2022/09/21 00:22:50;;;;;;;;;;;;;;;10.29;65.46;95364.00;5035525;28;1056;-62
2022/09/21 00:25:17;;;;;;;;;;;;;;;10.43;64.96;95366.16;5035735;28;1008;-61
2022/09/21 00:27:43;;;;;;;;;;;;;;;10.39;65.23;95361.28;5033001;28;1099;-62
2022/09/21 00:30:10;;;;;;;;;;;;;;;10.42;65.33;95371.69;5035811;28;1983;-61
2022/09/21 00:32:37;;;;;;;;;;;;;;;10.52;65.61;95364.38;5035741;28;992;-62
2022/09/21 00:35:03;;;;;;;;;;;;;;;10.53;65.45;95364.25;5035479;28;1049;-62
2022/09/21 00:37:29;;;;;;;;;;;;;;;10.53;65.32;95355.38;5035482;28;1107;-62
2022/09/21 00:39:55;;;;;;;;;;;;;;;10.54;65.20;95362.41;5035181;28;1001;-62
2022/09/21 00:42:24;;;;;;;;;;;;;;;10.50;65.38;95367.22;5035383;28;1025;-62
2022/09/21 00:44:50;;;;;;;;;;;;;;;10.60;65.58;95358.25;5035062;28;1210;-62
2022/09/21 00:47:20;;;;;;;;;;;;;;;10.72;65.40;95355.19;5035293;28;1091;-62
2022/09/21 00:49:48;;;;;;;;;;;;;;;10.67;65.80;95354.81;5035100;28;1981;-62
2022/09/21 00:52:18;;;;;;;;;;;;;;;10.47;66.33;95350.63;5035198;28;1080;-62
2022/09/21 00:54:52;;;;;;;;;;;;;;;10.49;66.51;95359.34;5034887;28;1199;-62
2022/09/21 00:57:22;;;;;;;;;;;;;;;10.58;66.49;95357.59;5035326;28;1045;-62
2022/09/21 00:59:54;;;;;;;;;;;;;;;10.39;66.50;95342.56;5053672;28;1354;-62
2022/09/21 01:02:21;;;;;;;;;;;;;;;10.37;66.56;95358.75;5054990;28;1045;-62
2022/09/21 01:04:47;;;;;;;;;;;;;;;10.46;66.71;95352.47;5054661;28;974;-62
2022/09/21 01:07:17;;;;;;;;;;;;;;;10.62;66.46;95351.75;5054785;28;1029;-62
2022/09/21 01:09:45;;;;;;;;;;;;;;;10.60;66.62;95345.72;5054647;28;1914;-62
2022/09/21 01:12:11;;;;;;;;;;;;;;;10.53;67.31;95352.72;5054964;28;1020;-61
2022/09/21 01:15:04;;;;;;;;;;;;;;;10.41;67.53;95336.06;5054778;28;1017;-62
2022/09/21 01:17:48;;;;;;;;;;;;;;;10.43;67.31;95335.91;5054715;28;1022;-62
2022/09/21 01:20:33;;;;;;;;;;;;;;;10.51;67.53;95333.31;5054403;28;1098;-62
2022/09/21 01:23:05;;;;;;;;;;;;;;;10.55;67.38;95332.84;5054540;28;1073;-61
2022/09/21 01:25:43;;;;;;;;;;;;;;;10.60;67.07;95331.53;5054270;28;1041;-61
2022/09/21 01:28:20;;;;;;;;;;;;;;;10.60;67.28;95331.53;5054259;28;1991;-62
2022/09/21 01:30:49;;;;;;;;;;;;;;;10.57;67.56;95327.34;5054360;28;973;-62
2022/09/21 01:33:18;;;;;;;;;;;;;;;10.65;67.37;95321.22;5053130;28;1126;-62
2022/09/21 01:35:49;;;;;;;;;;;;;;;10.64;67.29;95328.41;5054109;28;975;-62
2022/09/21 01:38:21;;;;;;;;;;;;;;;10.64;67.28;95328.41;5053899;28;1056;-62
2022/09/21 01:40:52;;;;;;;;;;;;;;;10.65;67.22;95335.41;5053829;28;1014;-62
2022/09/21 01:43:25;;;;;;;;;;;;;;;10.61;67.22;95328.69;5052956;28;949;-62
2022/09/21 01:45:53;;;;;;;;;;;;;;;10.61;67.28;95326.03;5053820;28;1080;-62
2022/09/21 01:48:21;;;;;;;;;;;;;;;10.51;67.90;95327.97;5054086;28;1983;-62
2022/09/21 01:50:50;;;;;;;;;;;;;;;10.57;67.45;95324.66;5053753;28;1107;-62
2022/09/21 01:53:22;;;;;;;;;;;;;;;10.47;67.60;95315.88;5053852;28;1045;-62
2022/09/21 01:55:51;;;;;;;;;;;;;;;10.49;67.50;95319.25;5053609;28;1294;-62
2022/09/21 01:58:29;;;;;;;;;;;;;;;10.48;67.32;95328.28;5047279;28;1299;-62
2022/09/21 02:00:56;;;;;;;;;;;;;;;10.48;67.41;95331.78;5033838;28;1052;-62
2022/09/21 02:03:32;;;;;;;;;;;;;;;10.56;66.84;95333.66;5033987;28;1032;-62
2022/09/21 02:05:59;;;;;;;;;;;;;;;10.44;67.13;95334.94;5033596;28;1202;-61
2022/09/21 02:08:25;;;;;;;;;;;;;;;10.37;67.38;95334.69;5033699;28;1989;-62
2022/09/21 02:10:52;;;;;;;;;;;;;;;10.47;67.53;95337.28;5033651;28;1224;-61
2022/09/21 02:13:20;;;;;;;;;;;;;;;10.43;67.41;95343.94;5033832;28;1037;-62
2022/09/21 02:16:06;;;;;;;;;;;;;;;10.27;68.00;95337.44;5033536;28;1023;-62
2022/09/21 02:18:50;;;;;;;;;;;;;;;10.11;68.16;95338.16;5033043;28;1107;-62
2022/09/21 02:21:24;;;;;;;;;;;;;;;9.99;68.66;95335.84;5033413;28;1220;-61
2022/09/21 02:23:53;;;;;;;;;;;;;;;10.27;67.58;95340.09;5033681;28;1011;-62
2022/09/21 02:26:25;;;;;;;;;;;;;;;10.35;67.86;95345.53;5033450;28;1040;-60
2022/09/21 02:28:54;;;;;;;;;;;;;;;10.47;67.52;95327.44;5033348;28;1984;-60
2022/09/21 02:31:44;;;;;;;;;;;;;;;10.47;67.31;95338.13;5033322;28;1036;-61
2022/09/21 02:34:17;;;;;;;;;;;;;;;10.32;67.79;95332.50;5032953;28;1057;-61
2022/09/21 02:37:16;;;;;;;;;;;;;;;10.37;67.69;95333.88;5033233;28;1024;-61
2022/09/21 02:39:48;;;;;;;;;;;;;;;10.25;68.30;95333.25;5032082;28;1315;-61
2022/09/21 02:42:25;;;;;;;;;;;;;;;10.34;67.76;95329.69;5033202;28;1032;-61
2022/09/21 02:44:54;;;;;;;;;;;;;;;10.48;67.22;95325.59;5033320;28;1111;-61
2022/09/21 02:47:27;;;;;;;;;;;;;;;10.56;67.57;95320.31;5033322;28;1035;-61
2022/09/21 02:49:57;;;;;;;;;;;;;;;10.50;68.06;95323.59;5033217;28;1995;-61
2022/09/21 02:52:24;;;;;;;;;;;;;;;10.35;68.51;95326.84;5037693;28;1039;-61
2022/09/21 02:54:52;;;;;;;;;;;;;;;10.33;68.19;95319.97;5037514;28;1026;-61
2022/09/21 02:57:19;;;;;;;;;;;;;;;10.46;68.46;95328.41;5037241;28;948;-61
2022/09/21 02:59:46;;;;;;;;;;;;;;;10.49;68.04;95328.13;5055630;28;1295;-61
2022/09/21 03:02:13;;;;;;;;;;;;;;;10.44;67.94;95332.25;5056972;28;1020;-62
2022/09/21 03:04:40;;;;;;;;;;;;;;;10.49;68.05;95324.59;5057402;28;1014;-61
2022/09/21 03:07:07;;;;;;;;;;;;;;;10.45;68.71;95318.75;5057134;28;1032;-61
2022/09/21 03:09:32;;;;;;;;;;;;;;;10.50;68.32;95315.59;5057094;28;1914;-61
2022/09/21 03:11:58;;;;;;;;;;;;;;;10.48;69.00;95320.25;5056861;28;1015;-61
2022/09/21 03:14:24;;;;;;;;;;;;;;;10.42;68.59;95319.03;5056914;28;1029;-62
2022/09/21 03:16:50;;;;;;;;;;;;;;;10.44;68.79;95322.41;5056598;28;946;-62
2022/09/21 03:19:16;;;;;;;;;;;;;;;10.49;68.72;95322.78;5057189;28;954;-62
2022/09/21 03:21:42;;;;;;;;;;;;;;;10.36;69.09;95314.31;5056715;28;1028;-62
2022/09/21 03:24:09;;;;;;;;;;;;;;;10.37;69.21;95315.16;5056941;28;972;-61
2022/09/21 03:26:35;;;;;;;;;;;;;;;10.46;69.12;95320.41;5055517;28;1047;-62
2022/09/21 03:29:02;;;;;;;;;;;;;;;10.49;68.56;95328.13;5056509;28;1902;-62
2022/09/21 03:31:28;;;;;;;;;;;;;;;10.28;69.60;95331.13;5056358;28;1099;-62
2022/09/21 03:33:54;;;;;;;;;;;;;;;10.23;69.60;95325.38;5056767;28;956;-61
2022/09/21 03:36:20;;;;;;;;;;;;;;;10.33;69.51;95328.81;5056385;28;1190;-62
2022/09/21 03:38:47;;;;;;;;;;;;;;;10.33;69.54;95328.00;5056555;28;970;-62
2022/09/21 03:41:14;;;;;;;;;;;;;;;10.48;69.29;95330.94;5056248;28;1032;-62
2022/09/21 03:43:40;;;;;;;;;;;;;;;10.45;69.19;95333.91;5056392;28;958;-61
2022/09/21 03:46:06;;;;;;;;;;;;;;;10.32;69.93;95334.31;5056156;28;966;-62
2022/09/21 03:48:32;;;;;;;;;;;;;;;10.29;69.84;95337.28;5056508;28;1910;-62
2022/09/21 03:50:58;;;;;;;;;;;;;;;10.33;69.72;95336.84;5056294;28;978;-61
2022/09/21 03:53:24;;;;;;;;;;;;;;;10.30;69.35;95331.81;5056215;28;1107;-62
2022/09/21 03:55:50;;;;;;;;;;;;;;;10.28;69.33;95332.91;5056137;28;1044;-62
2022/09/21 03:58:16;;;;;;;;;;;;;;;10.33;69.27;95336.84;5049346;28;1296;-62
2022/09/21 04:00:42;;;;;;;;;;;;;;;10.39;68.89;95334.56;5036093;28;980;-62
2022/09/21 04:03:08;;;;;;;;;;;;;;;10.38;69.24;95331.03;5035679;28;1044;-61
2022/09/21 04:05:34;;;;;;;;;;;;;;;10.43;68.67;95330.56;5036324;28;1062;-62
2022/09/21 04:08:01;;;;;;;;;;;;;;;10.36;68.85;95333.03;5035768;28;1067;-61
2022/09/21 04:10:28;;;;;;;;;;;;;;;10.38;68.55;95330.19;5036054;28;1914;-62
2022/09/21 04:12:57;;;;;;;;;;;;;;;10.32;68.72;95340.53;5034623;28;959;-62
2022/09/21 04:15:23;;;;;;;;;;;;;;;10.32;68.83;95334.31;5035882;28;968;-62
2022/09/21 04:17:50;;;;;;;;;;;;;;;10.39;68.63;95337.22;5035872;28;957;-62
2022/09/21 04:20:16;;;;;;;;;;;;;;;10.35;68.64;95342.03;5035805;28;1091;-62
2022/09/21 04:22:43;;;;;;;;;;;;;;;10.38;68.34;95344.41;5035706;28;1008;-61
2022/09/21 04:25:11;;;;;;;;;;;;;;;10.22;68.58;95345.06;5035751;28;1031;-62
2022/09/21 04:27:37;;;;;;;;;;;;;;;10.20;68.57;95346.22;5035541;28;1982;-62
2022/09/21 04:30:04;;;;;;;;;;;;;;;10.19;68.36;95342.72;5035464;28;1910;-61
2022/09/21 04:32:30;;;;;;;;;;;;;;;10.13;68.72;95346.84;5035441;28;1024;-62
2022/09/21 04:34:56;;;;;;;;;;;;;;;10.07;68.53;95346.59;5035446;28;1056;-61
2022/09/21 04:37:22;;;;;;;;;;;;;;;10.15;68.58;95350.19;5035521;28;992;-61
2022/09/21 04:39:48;;;;;;;;;;;;;;;10.17;68.29;95352.72;5035502;28;1028;-61
2022/09/21 04:42:14;;;;;;;;;;;;;;;10.12;68.65;95342.47;5035245;28;1024;-62
2022/09/21 04:44:40;;;;;;;;;;;;;;;10.23;68.04;95362.78;5035226;28;937;-61
2022/09/21 04:47:07;;;;;;;;;;;;;;;10.21;68.09;95354.09;5035376;28;1016;-62
2022/09/21 04:49:33;;;;;;;;;;;;;;;10.27;68.57;95358.81;5035425;28;1996;-61
2022/09/21 04:51:59;;;;;;;;;;;;;;;10.27;68.90;95358.81;5035137;28;920;-61
2022/09/21 04:54:25;;;;;;;;;;;;;;;10.20;69.00;95365.75;5035337;28;925;-61
2022/09/21 04:56:51;;;;;;;;;;;;;;;10.00;69.60;95365.09;5035083;28;1012;-62
2022/09/21 04:59:17;;;;;;;;;;;;;;;10.00;69.64;95372.25;5049481;28;1307;-61
2022/09/21 05:01:43;;;;;;;;;;;;;;;10.12;69.91;95373.72;5054871;28;1012;-61
2022/09/21 05:04:09;;;;;;;;;;;;;;;10.32;70.24;95372.59;5054935;28;988;-61
2022/09/21 05:06:35;;;;;;;;;;;;;;;10.48;69.97;95381.75;5055042;28;1004;-61
2022/09/21 05:11:46;;;;;;;;;;;;;;;10.55;70.00;95372.94;5054712;28;1025;-61
2022/09/21 05:14:12;;;;;;;;;;;;;;;10.57;70.31;95372.78;5053784;28;1114;-61
2022/09/21 05:16:38;;;;;;;;;;;;;;;10.66;70.02;95379.88;5054844;28;1037;-61
2022/09/21 05:19:04;;;;;;;;;;;;;;;10.77;69.63;95381.44;5054589;28;1044;-61
2022/09/21 05:21:31;;;;;;;;;;;;;;;10.91;69.43;95375.53;5054687;28;1048;-60
2022/09/21 05:23:57;;;;;;;;;;;;;;;10.98;70.04;95367.69;5054334;28;1220;-61
2022/09/21 05:26:24;;;;;;;;;;;;;;;11.05;70.38;95373.28;5054453;28;980;-61
2022/09/21 05:28:50;;;;;;;;;;;;;;;11.11;70.63;95381.47;5054331;28;1918;-61
2022/09/21 05:31:16;;;;;;;;;;;;;;;11.22;70.69;95375.03;5054574;28;1019;-64
2022/09/21 05:33:53;;;;;;;;;;;;;;;11.24;70.40;95366.84;5054458;28;1025;-59
2022/09/21 05:36:31;;;;;;;;;;;;;;;11.33;70.41;95361.38;5054256;28;1033;-61
2022/09/21 05:38:57;;;;;;;;;;;;;;;11.46;69.62;95354.75;5053913;28;954;-61
2022/09/21 05:41:24;;;;;;;;;;;;;;;11.58;69.42;95366.81;5054184;28;1045;-61
2022/09/21 05:43:50;;;;;;;;;;;;;;;11.74;69.83;95366.03;5053888;28;1052;-61
2022/09/21 05:46:36;;;;;;;;;;;;;;;11.92;69.42;95368.63;5054239;28;1025;-61
2022/09/21 05:49:06;;;;;;;;;;;;;;;12.04;68.24;95377.19;5053579;28;2001;-61
2022/09/21 05:51:42;;;;;;;;;;;;;;;12.20;68.85;95371.00;5053998;28;988;-62
2022/09/21 05:54:11;;;;;;;;;;;;;;;12.41;67.15;95371.38;5054195;28;1004;-62
2022/09/21 05:56:46;;;;;;;;;;;;;;;12.54;66.94;95370.88;5053952;28;1103;-61
2022/09/21 05:59:18;;;;;;;;;;;;;;;12.53;66.69;95369.19;5039518;28;1229;-62
2022/09/21 06:01:47;;;;;;;;;;;;;;;12.72;65.81;95378.75;5033943;28;961;-62
2022/09/21 06:04:13;;;;;;;;;;;;;;;12.97;65.86;95376.03;5033689;28;1080;-62
2022/09/21 06:06:39;;;;;;;;;;;;;;;13.22;64.91;95383.03;5033873;28;1852;-62
2022/09/21 06:09:05;;;;;;;;;;;;;;;13.33;64.96;95381.84;5033775;28;1995;-61
2022/09/21 06:11:32;;;;;;;;;;;;;;;13.47;64.32;95374.94;5033915;28;984;-61
2022/09/21 06:13:59;;;;;;;;;;;;;;;13.50;64.55;95379.94;5033516;28;1052;-61
2022/09/21 06:16:25;;;;;;;;;;;;;;;13.74;64.11;95379.00;5033709;28;1032;-61
2022/09/21 06:18:51;;;;;;;;;;;;;;;13.76;63.05;95384.22;5033356;28;988;-61
2022/09/21 06:21:17;;;;;;;;;;;;;;;13.82;63.10;95388.88;5033902;28;964;-61
2022/09/21 06:23:44;;;;;;;;;;;;;;;13.96;62.39;95376.53;5033552;28;1047;-61
2022/09/21 06:26:10;;;;;;;;;;;;;;;13.97;63.29;95381.75;5033635;28;1099;-61
2022/09/21 06:28:36;;;;;;;;;;;;;;;14.01;62.64;95377.69;5033430;28;1918;-62
2022/09/21 06:31:02;;;;;;;;;;;;;;;14.22;61.25;95378.91;5033459;28;1072;-61
2022/09/21 06:33:28;;;;;;;;;;;;;;;14.45;61.67;95384.28;5033352;28;1051;-61
2022/09/21 06:35:58;;;;;;;;;;;;;;;14.77;61.13;95399.38;5033304;28;1083;-61
2022/09/21 06:38:26;;;;;;;;;;;;;;;14.87;60.60;95388.34;5033594;28;972;-61
2022/09/21 06:40:52;;;;;;;;;;;;;;;14.95;60.32;95392.81;5033345;28;988;-60
2022/09/21 06:43:19;;;;;;;;;;;;;;;14.89;59.25;95390.88;5033417;28;1104;-61
2022/09/21 06:45:51;;;;;;;;;;;;;;;15.04;58.80;95386.34;5033037;28;1989;-61
2022/09/21 06:48:17;;;;;;;;;;;;;;;15.30;58.20;95390.50;5033322;28;1036;-60
2022/09/21 06:50:43;;;;;;;;;;;;;;;15.34;55.92;95387.22;5032093;28;995;-60
2022/09/21 06:53:09;;;;;;;;;;;;;;;15.50;55.22;95394.31;5033256;28;1111;-60
2022/09/21 06:55:35;;;;;;;;;;;;;;;15.68;54.28;95383.13;5033238;28;1016;-60
2022/09/21 06:58:02;;;;;;;;;;;;;;;15.83;54.10;95387.72;5037760;28;1353;-61
2022/09/21 07:00:29;;;;;;;;;;;;;;;16.01;53.29;95382.75;5053366;28;964;-59
2022/09/21 07:02:55;;;;;;;;;;;;;;;16.18;52.95;95381.53;5053215;28;960;-60
2022/09/21 07:05:21;;;;;;;;;;;;;;;16.26;52.12;95393.19;5053074;28;992;-61
2022/09/21 07:07:47;;;;;;;;;;;;;;;16.15;53.74;95389.97;5053122;28;1008;-59
2022/09/21 07:10:13;;;;;;;;;;;;;;;16.02;52.85;95384.44;5053070;28;1988;-60
2022/09/21 07:12:40;;;;;;;;;;;;;;;16.31;51.96;95386.19;5053007;28;1048;-60
2022/09/21 07:15:06;;;;;;;;;;;;;;;16.55;51.74;95384.19;5052681;28;1029;-60
2022/09/21 07:17:33;;;;;;;;;;;;;;;16.90;50.22;95381.63;5052924;28;1115;-60
2022/09/21 07:20:00;;;;;;;;;;;;;;;17.23;48.57;95381.06;5052861;28;961;-61
2022/09/21 07:22:32;;;;;;;;;;;;;;;17.55;48.40;95382.31;5053046;28;1008;-60
2022/09/21 07:24:59;;;;;;;;;;;;;;;17.80;47.21;95382.66;5052603;28;1100;-61
2022/09/21 07:27:25;;;;;;;;;;;;;;;18.00;47.81;95382.75;5052896;28;998;-61
2022/09/21 07:29:51;;;;;;;;;;;;;;;18.42;46.13;95377.28;5052450;28;1910;-61
2022/09/21 07:32:17;;;;;;;;;;;;;;;18.94;44.62;95380.34;5052782;28;1041;-61
2022/09/21 07:34:44;;;;;;;;;;;;;;;18.10;45.96;95390.53;5052892;28;1223;-60
2022/09/21 07:37:10;;;;;;;;;;;;;;;17.92;46.46;95388.34;5054972;28;1874;-60
2022/09/21 07:39:37;;;;;;;;;;;;;;;17.95;45.62;95386.09;5056527;28;1049;-61
2022/09/21 07:42:06;;;;;;;;;;;;;;;17.87;46.03;95382.69;5056420;28;1048;-61
2022/09/21 07:44:33;;;;;;;;;;;;;;;17.30;47.91;95385.47;5056317;28;1095;-61
2022/09/21 07:47:01;;;;;;;;;;;;;;;18.46;43.59;95387.50;5056567;28;982;-61
2022/09/21 07:49:27;;;;;;;;;;;;;;;18.40;43.97;95387.47;5056428;28;1983;-60
2022/09/21 07:51:53;;;;;;;;;;;;;;;17.84;46.02;95383.09;5056192;28;964;-61
2022/09/21 07:54:19;;;;;;;;;;;;;;;20.66;39.28;95394.53;5056324;28;1064;-61
2022/09/21 07:59:04;;;;;;;;;;;;;;;21.75;38.23;95397.84;5056032;28;986;-60
2022/09/21 07:59:31;;;;;;;;;;;;;;;22.37;36.49;95407.88;5039447;28;1259;-61
2022/09/21 08:01:58;;;;;;;;;;;;;;;22.95;36.43;95404.56;5035954;28;1253;-61
2022/09/21 08:04:25;;;;;;;;;;;;;;;28.96;28.04;95439.13;5036157;28;1028;-62
2022/09/21 08:06:51;;;;;;;;;;;;;;;33.87;22.65;95460.53;5036007;28;1020;-62
2022/09/21 08:09:17;;;;;;;;;;;;;;;33.12;23.64;95456.59;5036048;28;1989;-63
2022/09/21 08:11:45;;;;;;;;;;;;;;;32.85;23.40;95457.19;5035639;28;1287;-62
2022/09/21 08:14:18;;;;;;;;;;;;;;;30.59;24.65;95446.94;5036235;28;1000;-62
2022/09/21 08:16:45;;;;;;;;;;;;;;;27.16;28.39;95414.22;5035915;28;1028;-59
2022/09/21 08:19:11;;;;;;;;;;;;;;;23.96;32.86;95409.25;5036022;28;1027;-62
2022/09/21 08:21:37;;;;;;;;;;;;;;;21.56;36.48;95391.56;5035665;28;1032;-61
2022/09/21 08:24:03;;;;;;;;;;;;;;;20.12;39.09;95376.81;5035626;28;1848;-61
2022/09/21 08:26:29;;;;;;;;;;;;;;;19.09;40.80;95370.13;5035558;28;1087;-61
2022/09/21 08:28:57;;;;;;;;;;;;;;;18.49;42.03;95353.78;5035534;28;1911;-61
2022/09/21 08:31:24;;;;;;;;;;;;;;;18.01;44.15;95346.56;5035619;28;1051;-61
2022/09/21 08:33:50;;;;;;;;;;;;;;;17.68;44.61;95346.38;5035612;28;1083;-61
2022/09/21 08:36:17;;;;;;;;;;;;;;;17.51;44.27;95351.28;5035486;28;1085;-61
2022/09/21 08:38:43;;;;;;;;;;;;;;;17.43;45.59;95354.16;5035943;28;1021;-61
2022/09/21 08:41:13;;;;;;;;;;;;;;;17.31;46.81;95349.31;5035279;28;1032;-61
2022/09/21 08:43:41;;;;;;;;;;;;;;;17.27;44.72;95348.03;5035478;28;1095;-61
2022/09/21 08:46:12;;;;;;;;;;;;;;;17.27;45.15;95356.13;5035200;28;1087;-61
2022/09/21 08:48:40;;;;;;;;;;;;;;;17.29;45.29;95353.25;5034194;28;1989;-61
2022/09/21 08:51:10;;;;;;;;;;;;;;;17.33;45.10;95344.53;5035113;28;1042;-60
2022/09/21 08:53:44;;;;;;;;;;;;;;;17.41;44.77;95350.81;5034342;28;1159;-60
2022/09/21 08:56:14;;;;;;;;;;;;;;;17.36;43.69;95354.13;5035323;28;1025;-61
2022/09/21 09:02:13;;;;;;;;;;;;;;;17.55;43.88;95348.00;4311022;28;1796;-60
2022/09/21 09:05:06;;;;;;;;;;;;;;;17.63;43.54;95338.88;5055063;28;1072;-60
2022/09/21 09:07:47;;;;;;;;;;;;;;;17.68;43.05;95343.69;5046188;28;1182;-61
2022/09/21 09:10:18;;;;;;;;;;;;;;;17.84;43.28;95340.69;5054695;28;1906;-60
2022/09/21 09:12:44;;;;;;;;;;;;;;;18.08;43.48;95335.75;5054825;28;1044;-61
2022/09/21 09:15:19;;;;;;;;;;;;;;;18.11;42.14;95336.19;5054739;28;1176;-60
2022/09/21 09:17:46;;;;;;;;;;;;;;;18.03;41.97;95336.38;5054766;28;1128;-60
2022/09/21 09:20:20;;;;;;;;;;;;;;;17.99;42.16;95329.72;5054722;28;1045;-60
2022/09/21 09:23:08;;;;;;;;;;;;;;;17.95;42.41;95321.16;5054304;28;1095;-60
2022/09/21 09:25:37;;;;;;;;;;;;;;;18.01;41.27;95324.94;5054518;28;1104;-60
2022/09/21 09:28:25;;;;;;;;;;;;;;;18.16;42.93;95316.66;5054250;28;1041;-61
2022/09/21 09:31:12;;;;;;;;;;;;;;;18.43;41.92;95328.34;5054394;28;1017;-60
2022/09/21 09:33:45;;;;;;;;;;;;;;;18.56;41.61;95322.13;5050201;28;1508;-60
2022/09/21 09:36:11;;;;;;;;;;;;;;;18.54;41.09;95324.22;5054460;28;1013;-60
2022/09/21 09:38:39;;;;;;;;;;;;;;;18.43;40.48;95320.22;5054263;28;965;-60
2022/09/21 09:41:05;;;;;;;;;;;;;;;18.33;41.31;95315.22;5054217;28;1916;-61
2022/09/21 09:43:45;;;;;;;;;;;;;;;18.39;41.50;95308.16;5054064;28;1052;-60
2022/09/21 09:46:14;;;;;;;;;;;;;;;18.50;41.93;95304.00;5054397;28;970;-60
2022/09/21 09:48:59;;;;;;;;;;;;;;;18.44;41.52;95299.41;5053937;28;1906;-61
2022/09/21 09:51:25;;;;;;;;;;;;;;;18.27;42.83;95297.09;5054159;28;1031;-60
2022/09/21 09:53:55;;;;;;;;;;;;;;;18.06;41.72;95300.81;5053797;28;950;-60
2022/09/21 09:56:22;;;;;;;;;;;;;;;17.87;42.75;95302.41;5054250;28;1096;-60
2022/09/21 09:58:53;;;;;;;;;;;;;;;17.61;43.33;95313.09;5041560;28;1264;-61
2022/09/21 10:01:36;;;;;;;;;;;;;;;17.36;43.81;95313.59;5033646;28;1619;-61
2022/09/21 10:04:06;;;;;;;;;;;;;;;17.09;44.03;95320.69;5033804;28;1031;-60
2022/09/21 10:06:32;;;;;;;;;;;;;;;16.95;44.70;95315.19;5033898;28;957;-60
2022/09/21 10:08:58;;;;;;;;;;;;;;;17.10;45.36;95311.56;5033759;28;1906;-60
2022/09/21 10:11:33;;;;;;;;;;;;;;;17.07;44.26;95301.13;5034050;28;1036;-60
2022/09/21 10:14:06;;;;;;;;;;;;;;;17.04;44.41;95312.34;5033690;28;1031;-60
2022/09/21 10:16:39;;;;;;;;;;;;;;;16.95;45.11;95303.56;5033865;28;1047;-60
2022/09/21 10:19:05;;;;;;;;;;;;;;;16.93;44.87;95305.63;5033540;28;1039;-60
2022/09/21 10:21:31;;;;;;;;;;;;;;;17.00;44.10;95316.44;5033652;28;1048;-60
2022/09/21 10:23:58;;;;;;;;;;;;;;;17.03;44.89;95316.91;5033363;28;1107;-60
2022/09/21 10:26:29;;;;;;;;;;;;;;;17.23;44.62;95310.81;5033756;28;980;-60
2022/09/21 10:28:57;;;;;;;;;;;;;;;17.62;43.41;95307.47;5033260;28;1995;-60
2022/09/21 10:31:28;;;;;;;;;;;;;;;17.80;43.71;95300.69;5033588;28;972;-59
2022/09/21 10:34:00;;;;;;;;;;;;;;;18.16;43.30;95299.59;5032258;28;1476;-60
2022/09/21 10:36:28;;;;;;;;;;;;;;;18.42;43.10;95293.38;5033629;28;996;-60
2022/09/21 10:38:55;;;;;;;;;;;;;;;18.59;42.05;95291.94;5033200;28;1025;-60
2022/09/21 10:41:21;;;;;;;;;;;;;;;18.74;42.32;95291.72;5033431;28;1967;-60
2022/09/21 10:43:49;;;;;;;;;;;;;;;18.73;41.59;95284.66;5033223;28;1038;-60
2022/09/21 10:46:15;;;;;;;;;;;;;;;18.77;42.06;95291.31;5033326;28;1039;-60
2022/09/21 10:48:44;;;;;;;;;;;;;;;18.81;41.00;95283.63;5031808;28;1906;-60
2022/09/21 10:51:20;;;;;;;;;;;;;;;18.87;41.11;95282.78;5033527;28;1003;-60
2022/09/21 10:54:07;;;;;;;;;;;;;;;19.01;40.84;95275.47;5033112;28;2202;-60
2022/09/21 10:56:34;;;;;;;;;;;;;;;18.85;40.33;95277.56;5033291;28;1846;-60
2022/09/21 10:59:20;;;;;;;;;;;;;;;18.70;42.12;95261.53;5045249;28;1374;-60
2022/09/21 11:01:48;;;;;;;;;;;;;;;18.56;41.68;95250.91;5052991;28;1116;-60
2022/09/21 11:04:21;;;;;;;;;;;;;;;18.38;41.84;95256.94;5053037;28;1032;-60
2022/09/21 11:06:53;;;;;;;;;;;;;;;18.17;41.50;95256.06;5051936;28;1052;-59
2022/09/21 11:09:22;;;;;;;;;;;;;;;18.00;42.71;95250.19;5052828;28;1969;-59
2022/09/21 11:11:47;;;;;;;;;;;;;;;17.84;41.29;95254.13;5054565;28;978;-60
2022/09/21 11:14:20;;;;;;;;;;;;;;;17.86;41.80;95262.88;5056802;28;1029;-60
2022/09/21 11:16:59;;;;;;;;;;;;;;;17.96;41.91;95248.94;5057023;28;1022;-60
2022/09/21 11:19:27;;;;;;;;;;;;;;;17.95;40.89;95255.41;5056842;28;992;-60
2022/09/21 11:22:16;;;;;;;;;;;;;;;17.90;41.82;95252.47;5056706;28;1033;-60
2022/09/21 11:24:42;;;;;;;;;;;;;;;17.81;42.45;95245.56;5056446;28;1290;-60
2022/09/21 11:27:22;;;;;;;;;;;;;;;17.81;42.93;95245.56;5056938;28;909;-60
2022/09/21 11:29:54;;;;;;;;;;;;;;;17.83;42.49;95240.78;5056540;28;1989;-60
2022/09/21 11:32:32;;;;;;;;;;;;;;;17.72;42.72;95243.03;5056631;28;1054;-60
2022/09/21 11:35:04;;;;;;;;;;;;;;;17.68;42.58;95241.78;5056659;28;970;-60
2022/09/21 11:37:48;;;;;;;;;;;;;;;17.72;43.40;95240.34;5056530;28;1100;-60
2022/09/21 11:40:18;;;;;;;;;;;;;;;17.81;43.29;95235.56;5056546;28;958;-60
2022/09/21 11:42:46;;;;;;;;;;;;;;;17.92;42.99;95237.69;5056414;28;985;-60
2022/09/21 11:45:21;;;;;;;;;;;;;;;18.20;43.91;95233.19;5056504;28;1080;-60
2022/09/21 11:47:50;;;;;;;;;;;;;;;18.34;42.63;95226.72;5056544;28;982;-60
2022/09/21 11:50:20;;;;;;;;;;;;;;;18.45;42.36;95231.53;5056205;28;1906;-60
2022/09/21 11:53:05;;;;;;;;;;;;;;;18.51;42.69;95219.03;5056306;28;1026;-60
2022/09/21 11:55:50;;;;;;;;;;;;;;;18.57;41.98;95220.88;5056080;28;1104;-60
2022/09/21 11:58:19;;;;;;;;;;;;;;;18.59;42.40;95218.84;5049823;28;1426;-59
2022/09/21 12:00:45;;;;;;;;;;;;;;;18.59;42.01;95212.56;5035950;28;1102;-60
2022/09/21 12:03:24;;;;;;;;;;;;;;;18.70;41.90;95210.06;5036347;28;1015;-59
2022/09/21 12:05:56;;;;;;;;;;;;;;;18.66;41.64;95213.41;5035862;28;968;-60
2022/09/21 12:08:22;;;;;;;;;;;;;;;18.51;42.47;95222.56;5036379;28;996;-59
2022/09/21 12:11:00;;;;;;;;;;;;;;;18.28;41.18;95225.69;5035939;28;1985;-60
2022/09/21 12:13:38;;;;;;;;;;;;;;;18.12;41.41;95229.63;5036164;28;1047;-60
2022/09/21 12:16:10;;;;;;;;;;;;;;;17.96;42.21;95230.00;5035794;28;1037;-60
2022/09/21 12:18:47;;;;;;;;;;;;;;;17.90;41.53;95226.25;5035878;28;1039;-60
2022/09/21 12:21:19;;;;;;;;;;;;;;;17.86;41.31;95224.19;5035928;28;1031;-59
2022/09/21 12:23:48;;;;;;;;;;;;;;;17.88;41.91;95216.69;5035694;28;992;-60
2022/09/21 12:26:18;;;;;;;;;;;;;;;18.17;41.92;95217.34;5035605;28;1080;-59
2022/09/21 12:28:46;;;;;;;;;;;;;;;18.43;41.21;95220.06;5035543;28;1999;-59
2022/09/21 12:31:30;;;;;;;;;;;;;;;18.44;41.19;95216.34;5035789;28;969;-59
2022/09/21 12:34:02;;;;;;;;;;;;;;;18.39;40.98;95210.72;5035724;28;1023;-60
2022/09/21 12:36:37;;;;;;;;;;;;;;;18.34;41.09;95203.22;5035496;28;1015;-60
2022/09/21 12:39:09;;;;;;;;;;;;;;;18.47;41.13;95213.19;5035483;28;1039;-60
2022/09/21 12:41:46;;;;;;;;;;;;;;;18.49;39.33;95213.00;5035336;28;1036;-59
2022/09/21 12:44:32;;;;;;;;;;;;;;;18.60;39.97;95198.00;5035491;28;1080;-60
2022/09/21 12:47:10;;;;;;;;;;;;;;;18.73;40.73;95200.69;5035235;28;1203;-60
2022/09/21 12:49:45;;;;;;;;;;;;;;;18.65;41.52;95195.50;5035183;28;1906;-59
2022/09/21 12:52:17;;;;;;;;;;;;;;;18.55;40.50;95198.63;5035497;28;960;-59
2022/09/21 12:54:47;;;;;;;;;;;;;;;18.48;41.17;95198.63;5035370;28;1031;-59
2022/09/21 12:57:31;;;;;;;;;;;;;;;18.47;40.73;95215.91;5035432;28;960;-60
2022/09/21 12:59:58;;;;;;;;;;;;;;;18.35;39.84;95204.06;5034942;28;978;-59
2022/09/21 13:02:32;;;;;;;;;;;;;;;18.29;39.75;95200.31;5034897;28;1318;-60
2022/09/21 13:05:05;;;;;;;;;;;;;;;18.31;40.12;95203.63;5035086;28;1053;-60
2022/09/21 13:07:51;;;;;;;;;;;;;;;18.25;39.27;95199.06;5035161;28;1006;-60
2022/09/21 13:10:18;;;;;;;;;;;;;;;18.23;39.77;95198.44;5034398;28;1910;-60
2022/09/21 13:12:46;;;;;;;;;;;;;;;18.23;41.08;95189.47;5034701;28;1025;-59
2022/09/21 13:15:16;;;;;;;;;;;;;;;18.28;40.36;95198.63;5034584;28;1040;-60
2022/09/21 13:17:42;;;;;;;;;;;;;;;18.29;41.02;95192.19;5034900;28;976;-60
2022/09/21 13:20:19;;;;;;;;;;;;;;;18.21;39.95;95195.09;5034551;28;1072;-60